sensor_id;sensor_type;location;lat;lon;timestamp;P1;durP1;ratioP1;P2;durP2;ratioP2
37411;SDS011;23278;52.110;6.050;2022-10-18T00:01:36;14.23;;;9.75;;
37411;SDS011;23278;52.110;6.050;2022-10-18T00:04:02;13.30;;;9.70;;
37411;SDS011;23278;52.110;6.050;2022-10-18T00:06:28;10.27;;;9.00;;
37411;SDS011;23278;52.110;6.050;2022-10-18T00:08:53;11.68;;;9.20;;
37411;SDS011;23278;52.110;6.050;2022-10-18T00:11:19;11.70;;;9.27;;
37411;SDS011;23278;52.110;6.050;2022-10-18T00:13:45;13.93;;;10.00;;
37411;SDS011;23278;52.110;6.050;2022-10-18T00:16:12;13.57;;;10.13;;
37411;SDS011;23278;52.110;6.050;2022-10-18T00:18:40;13.70;;;9.63;;
37411;SDS011;23278;52.110;6.050;2022-10-18T00:21:14;14.68;;;9.45;;
37411;SDS011;23278;52.110;6.050;2022-10-18T00:23:42;13.07;;;9.00;;
37411;SDS011;23278;52.110;6.050;2022-10-18T00:26:16;14.15;;;10.40;;
37411;SDS011;23278;52.110;6.050;2022-10-18T00:28:49;16.35;;;11.77;;
37411;SDS011;23278;52.110;6.050;2022-10-18T00:33:45;14.15;;;10.23;;
37411;SDS011;23278;52.110;6.050;2022-10-18T00:36:12;14.30;;;10.88;;
37411;SDS011;23278;52.110;6.050;2022-10-18T00:38:39;13.95;;;10.55;;
37411;SDS011;23278;52.110;6.050;2022-10-18T00:41:06;15.27;;;10.25;;
37411;SDS011;23278;52.110;6.050;2022-10-18T00:43:49;13.63;;;10.75;;
37411;SDS011;23278;52.110;6.050;2022-10-18T00:46:43;14.23;;;10.60;;
37411;SDS011;23278;52.110;6.050;2022-10-18T00:51:56;15.25;;;10.63;;
37411;SDS011;23278;52.110;6.050;2022-10-18T00:54:22;16.30;;;12.85;;
37411;SDS011;23278;52.110;6.050;2022-10-18T00:56:50;19.55;;;13.35;;
37411;SDS011;23278;52.110;6.050;2022-10-18T00:59:17;19.98;;;12.80;;
37411;SDS011;23278;52.110;6.050;2022-10-18T01:01:43;18.85;;;12.13;;
37411;SDS011;23278;52.110;6.050;2022-10-18T01:04:10;18.63;;;12.55;;
37411;SDS011;23278;52.110;6.050;2022-10-18T01:06:43;18.25;;;11.88;;
37411;SDS011;23278;52.110;6.050;2022-10-18T01:17:45;13.30;;;10.15;;
37411;SDS011;23278;52.110;6.050;2022-10-18T01:23:21;14.77;;;10.48;;
37411;SDS011;23278;52.110;6.050;2022-10-18T01:31:52;12.80;;;9.80;;
37411;SDS011;23278;52.110;6.050;2022-10-18T01:34:37;11.35;;;9.18;;
37411;SDS011;23278;52.110;6.050;2022-10-18T01:37:05;10.65;;;9.13;;
37411;SDS011;23278;52.110;6.050;2022-10-18T01:39:36;13.00;;;8.95;;
37411;SDS011;23278;52.110;6.050;2022-10-18T01:42:07;14.15;;;9.02;;
37411;SDS011;23278;52.110;6.050;2022-10-18T01:44:36;14.10;;;9.63;;
37411;SDS011;23278;52.110;6.050;2022-10-18T01:47:04;13.00;;;9.98;;
37411;SDS011;23278;52.110;6.050;2022-10-18T01:49:32;12.00;;;8.95;;
37411;SDS011;23278;52.110;6.050;2022-10-18T01:51:58;11.18;;;9.45;;
37411;SDS011;23278;52.110;6.050;2022-10-18T01:54:28;11.15;;;8.82;;
37411;SDS011;23278;52.110;6.050;2022-10-18T01:57:51;11.10;;;8.15;;
37411;SDS011;23278;52.110;6.050;2022-10-18T02:01:18;9.23;;;7.15;;
37411;SDS011;23278;52.110;6.050;2022-10-18T02:03:49;11.35;;;8.05;;
37411;SDS011;23278;52.110;6.050;2022-10-18T02:06:23;10.65;;;7.78;;
37411;SDS011;23278;52.110;6.050;2022-10-18T02:11:23;8.02;;;6.68;;
37411;SDS011;23278;52.110;6.050;2022-10-18T02:13:53;12.00;;;8.25;;
37411;SDS011;23278;52.110;6.050;2022-10-18T02:16:28;12.02;;;8.85;;
37411;SDS011;23278;52.110;6.050;2022-10-18T02:19:08;9.35;;;7.53;;
37411;SDS011;23278;52.110;6.050;2022-10-18T02:21:39;10.25;;;7.32;;
37411;SDS011;23278;52.110;6.050;2022-10-18T02:24:07;15.48;;;9.30;;
37411;SDS011;23278;52.110;6.050;2022-10-18T02:26:37;15.90;;;9.82;;
37411;SDS011;23278;52.110;6.050;2022-10-18T02:29:03;14.75;;;8.98;;
37411;SDS011;23278;52.110;6.050;2022-10-18T02:31:30;17.75;;;11.68;;
37411;SDS011;23278;52.110;6.050;2022-10-18T02:34:16;18.50;;;11.63;;
37411;SDS011;23278;52.110;6.050;2022-10-18T02:36:52;16.90;;;10.60;;
37411;SDS011;23278;52.110;6.050;2022-10-18T02:39:41;21.08;;;11.23;;
37411;SDS011;23278;52.110;6.050;2022-10-18T02:42:10;16.52;;;10.38;;
37411;SDS011;23278;52.110;6.050;2022-10-18T02:44:36;18.90;;;11.25;;
37411;SDS011;23278;52.110;6.050;2022-10-18T02:47:03;21.48;;;12.07;;
37411;SDS011;23278;52.110;6.050;2022-10-18T02:49:30;21.38;;;11.75;;
37411;SDS011;23278;52.110;6.050;2022-10-18T02:51:56;21.55;;;12.18;;
37411;SDS011;23278;52.110;6.050;2022-10-18T02:54:22;19.90;;;12.60;;
37411;SDS011;23278;52.110;6.050;2022-10-18T02:56:48;21.83;;;11.95;;
37411;SDS011;23278;52.110;6.050;2022-10-18T02:59:15;19.70;;;10.90;;
37411;SDS011;23278;52.110;6.050;2022-10-18T03:01:40;19.05;;;11.45;;
37411;SDS011;23278;52.110;6.050;2022-10-18T03:04:07;18.00;;;11.68;;
37411;SDS011;23278;52.110;6.050;2022-10-18T03:06:33;22.17;;;11.60;;
37411;SDS011;23278;52.110;6.050;2022-10-18T03:09:03;25.48;;;13.02;;
37411;SDS011;23278;52.110;6.050;2022-10-18T03:11:30;16.95;;;9.82;;
37411;SDS011;23278;52.110;6.050;2022-10-18T03:13:56;21.27;;;11.52;;
37411;SDS011;23278;52.110;6.050;2022-10-18T03:16:22;15.93;;;9.88;;
37411;SDS011;23278;52.110;6.050;2022-10-18T03:18:48;16.48;;;9.77;;
37411;SDS011;23278;52.110;6.050;2022-10-18T03:21:14;14.68;;;10.18;;
37411;SDS011;23278;52.110;6.050;2022-10-18T03:23:39;16.38;;;10.63;;
37411;SDS011;23278;52.110;6.050;2022-10-18T03:26:06;18.55;;;10.82;;
37411;SDS011;23278;52.110;6.050;2022-10-18T03:28:32;18.25;;;10.65;;
37411;SDS011;23278;52.110;6.050;2022-10-18T03:31:02;16.70;;;9.90;;
37411;SDS011;23278;52.110;6.050;2022-10-18T03:33:29;32.45;;;10.75;;
37411;SDS011;23278;52.110;6.050;2022-10-18T03:35:56;25.23;;;10.25;;
37411;SDS011;23278;52.110;6.050;2022-10-18T03:38:22;47.10;;;10.00;;
37411;SDS011;23278;52.110;6.050;2022-10-18T03:40:48;18.20;;;8.70;;
37411;SDS011;23278;52.110;6.050;2022-10-18T03:43:14;30.73;;;9.75;;
37411;SDS011;23278;52.110;6.050;2022-10-18T03:45:40;28.38;;;9.93;;
37411;SDS011;23278;52.110;6.050;2022-10-18T03:48:06;16.38;;;8.82;;
37411;SDS011;23278;52.110;6.050;2022-10-18T03:50:31;15.07;;;9.55;;
37411;SDS011;23278;52.110;6.050;2022-10-18T03:52:57;11.73;;;8.48;;
37411;SDS011;23278;52.110;6.050;2022-10-18T03:55:23;13.50;;;7.60;;
37411;SDS011;23278;52.110;6.050;2022-10-18T03:57:49;16.33;;;9.18;;
37411;SDS011;23278;52.110;6.050;2022-10-18T04:00:15;13.07;;;7.82;;
37411;SDS011;23278;52.110;6.050;2022-10-18T04:02:41;10.60;;;8.10;;
37411;SDS011;23278;52.110;6.050;2022-10-18T04:05:07;10.75;;;7.53;;
37411;SDS011;23278;52.110;6.050;2022-10-18T04:07:33;10.27;;;7.35;;
37411;SDS011;23278;52.110;6.050;2022-10-18T04:09:59;12.20;;;7.55;;
37411;SDS011;23278;52.110;6.050;2022-10-18T04:12:25;12.82;;;7.72;;
37411;SDS011;23278;52.110;6.050;2022-10-18T04:14:51;14.02;;;8.77;;
37411;SDS011;23278;52.110;6.050;2022-10-18T04:17:17;14.60;;;8.65;;
37411;SDS011;23278;52.110;6.050;2022-10-18T04:19:43;17.00;;;8.15;;
37411;SDS011;23278;52.110;6.050;2022-10-18T04:22:09;25.20;;;8.27;;
37411;SDS011;23278;52.110;6.050;2022-10-18T04:24:36;17.20;;;8.63;;
37411;SDS011;23278;52.110;6.050;2022-10-18T04:27:03;13.23;;;8.70;;
37411;SDS011;23278;52.110;6.050;2022-10-18T04:29:30;12.60;;;7.65;;
37411;SDS011;23278;52.110;6.050;2022-10-18T04:31:56;9.57;;;7.22;;
37411;SDS011;23278;52.110;6.050;2022-10-18T04:34:22;12.65;;;7.70;;
37411;SDS011;23278;52.110;6.050;2022-10-18T04:36:48;11.07;;;7.50;;
37411;SDS011;23278;52.110;6.050;2022-10-18T04:39:13;10.00;;;7.55;;
37411;SDS011;23278;52.110;6.050;2022-10-18T04:41:39;10.82;;;7.25;;
37411;SDS011;23278;52.110;6.050;2022-10-18T04:44:06;10.98;;;6.30;;
37411;SDS011;23278;52.110;6.050;2022-10-18T04:46:32;9.38;;;6.47;;
37411;SDS011;23278;52.110;6.050;2022-10-18T04:48:58;11.20;;;7.00;;
37411;SDS011;23278;52.110;6.050;2022-10-18T04:51:29;13.00;;;7.45;;
37411;SDS011;23278;52.110;6.050;2022-10-18T04:53:55;12.75;;;7.43;;
37411;SDS011;23278;52.110;6.050;2022-10-18T04:56:21;11.85;;;7.88;;
37411;SDS011;23278;52.110;6.050;2022-10-18T04:58:47;15.40;;;8.25;;
37411;SDS011;23278;52.110;6.050;2022-10-18T05:01:13;18.67;;;8.00;;
37411;SDS011;23278;52.110;6.050;2022-10-18T05:03:39;43.58;;;9.50;;
37411;SDS011;23278;52.110;6.050;2022-10-18T05:06:05;25.63;;;7.93;;
37411;SDS011;23278;52.110;6.050;2022-10-18T05:08:31;30.20;;;8.10;;
37411;SDS011;23278;52.110;6.050;2022-10-18T05:10:58;49.15;;;8.50;;
37411;SDS011;23278;52.110;6.050;2022-10-18T05:13:24;60.70;;;8.45;;
37411;SDS011;23278;52.110;6.050;2022-10-18T05:15:50;27.38;;;8.23;;
37411;SDS011;23278;52.110;6.050;2022-10-18T05:18:16;27.20;;;7.82;;
37411;SDS011;23278;52.110;6.050;2022-10-18T05:20:42;44.72;;;7.43;;
37411;SDS011;23278;52.110;6.050;2022-10-18T05:23:08;37.90;;;7.57;;
37411;SDS011;23278;52.110;6.050;2022-10-18T05:25:38;23.17;;;6.85;;
37411;SDS011;23278;52.110;6.050;2022-10-18T05:28:08;19.83;;;6.30;;
37411;SDS011;23278;52.110;6.050;2022-10-18T05:30:37;20.33;;;6.75;;
37411;SDS011;23278;52.110;6.050;2022-10-18T05:33:04;19.42;;;6.70;;
37411;SDS011;23278;52.110;6.050;2022-10-18T05:35:30;19.73;;;6.10;;
37411;SDS011;23278;52.110;6.050;2022-10-18T05:37:57;14.65;;;6.22;;
37411;SDS011;23278;52.110;6.050;2022-10-18T05:40:23;21.90;;;6.35;;
37411;SDS011;23278;52.110;6.050;2022-10-18T05:43:02;14.35;;;5.28;;
37411;SDS011;23278;52.110;6.050;2022-10-18T05:45:28;17.63;;;5.85;;
37411;SDS011;23278;52.110;6.050;2022-10-18T05:47:54;32.92;;;5.45;;
37411;SDS011;23278;52.110;6.050;2022-10-18T05:50:20;110.63;;;5.90;;
37411;SDS011;23278;52.110;6.050;2022-10-18T05:52:46;24.70;;;4.20;;
37411;SDS011;23278;52.110;6.050;2022-10-18T05:55:21;29.80;;;3.70;;
37411;SDS011;23278;52.110;6.050;2022-10-18T05:57:48;39.15;;;3.05;;
37411;SDS011;23278;52.110;6.050;2022-10-18T06:00:14;38.70;;;2.33;;
37411;SDS011;23278;52.110;6.050;2022-10-18T06:02:41;23.27;;;2.10;;
37411;SDS011;23278;52.110;6.050;2022-10-18T06:05:06;9.80;;;1.52;;
37411;SDS011;23278;52.110;6.050;2022-10-18T06:07:33;24.95;;;2.35;;
37411;SDS011;23278;52.110;6.050;2022-10-18T06:09:58;33.75;;;2.05;;
37411;SDS011;23278;52.110;6.050;2022-10-18T06:12:25;40.70;;;2.45;;
37411;SDS011;23278;52.110;6.050;2022-10-18T06:14:53;29.48;;;2.38;;
37411;SDS011;23278;52.110;6.050;2022-10-18T06:17:19;16.77;;;1.77;;
37411;SDS011;23278;52.110;6.050;2022-10-18T06:19:45;10.50;;;1.52;;
37411;SDS011;23278;52.110;6.050;2022-10-18T06:22:11;25.63;;;1.65;;
37411;SDS011;23278;52.110;6.050;2022-10-18T06:24:37;21.83;;;1.90;;
37411;SDS011;23278;52.110;6.050;2022-10-18T06:27:03;10.85;;;1.67;;
37411;SDS011;23278;52.110;6.050;2022-10-18T06:29:34;7.05;;;1.73;;
37411;SDS011;23278;52.110;6.050;2022-10-18T06:32:00;10.18;;;1.63;;
37411;SDS011;23278;52.110;6.050;2022-10-18T06:34:28;10.75;;;1.90;;
37411;SDS011;23278;52.110;6.050;2022-10-18T06:36:55;28.88;;;2.05;;
37411;SDS011;23278;52.110;6.050;2022-10-18T06:39:20;2.97;;;1.75;;
37411;SDS011;23278;52.110;6.050;2022-10-18T06:41:46;4.03;;;1.75;;
37411;SDS011;23278;52.110;6.050;2022-10-18T06:44:18;3.50;;;1.60;;
37411;SDS011;23278;52.110;6.050;2022-10-18T06:46:45;9.60;;;2.08;;
37411;SDS011;23278;52.110;6.050;2022-10-18T06:49:12;2.78;;;2.03;;
37411;SDS011;23278;52.110;6.050;2022-10-18T06:51:39;4.65;;;1.75;;
37411;SDS011;23278;52.110;6.050;2022-10-18T06:54:06;4.00;;;2.70;;
37411;SDS011;23278;52.110;6.050;2022-10-18T06:56:32;3.70;;;2.25;;
37411;SDS011;23278;52.110;6.050;2022-10-18T06:58:58;2.60;;;1.75;;
37411;SDS011;23278;52.110;6.050;2022-10-18T07:01:24;3.75;;;2.85;;
37411;SDS011;23278;52.110;6.050;2022-10-18T07:03:51;4.03;;;2.67;;
37411;SDS011;23278;52.110;6.050;2022-10-18T07:06:18;4.57;;;3.13;;
37411;SDS011;23278;52.110;6.050;2022-10-18T07:08:46;5.50;;;3.30;;
37411;SDS011;23278;52.110;6.050;2022-10-18T07:11:14;4.63;;;3.17;;
37411;SDS011;23278;52.110;6.050;2022-10-18T07:13:42;4.22;;;3.08;;
37411;SDS011;23278;52.110;6.050;2022-10-18T07:16:09;6.50;;;3.85;;
37411;SDS011;23278;52.110;6.050;2022-10-18T07:18:36;7.50;;;3.88;;
37411;SDS011;23278;52.110;6.050;2022-10-18T07:21:16;5.70;;;4.13;;
37411;SDS011;23278;52.110;6.050;2022-10-18T07:23:44;5.63;;;3.85;;
37411;SDS011;23278;52.110;6.050;2022-10-18T07:26:24;3.78;;;3.28;;
37411;SDS011;23278;52.110;6.050;2022-10-18T07:28:56;3.42;;;2.45;;
37411;SDS011;23278;52.110;6.050;2022-10-18T07:31:33;3.95;;;2.78;;
37411;SDS011;23278;52.110;6.050;2022-10-18T07:34:00;5.22;;;3.45;;
37411;SDS011;23278;52.110;6.050;2022-10-18T07:36:31;6.40;;;3.92;;
37411;SDS011;23278;52.110;6.050;2022-10-18T07:38:57;21.35;;;4.88;;
37411;SDS011;23278;52.110;6.050;2022-10-18T07:41:24;8.02;;;4.70;;
37411;SDS011;23278;52.110;6.050;2022-10-18T07:43:50;7.97;;;4.88;;
37411;SDS011;23278;52.110;6.050;2022-10-18T07:46:17;8.52;;;4.38;;
37411;SDS011;23278;52.110;6.050;2022-10-18T07:48:44;5.32;;;3.42;;
37411;SDS011;23278;52.110;6.050;2022-10-18T07:51:11;8.75;;;4.15;;
37411;SDS011;23278;52.110;6.050;2022-10-18T07:53:37;8.93;;;4.22;;
37411;SDS011;23278;52.110;6.050;2022-10-18T07:56:04;9.25;;;4.63;;
37411;SDS011;23278;52.110;6.050;2022-10-18T07:58:32;9.20;;;4.90;;
37411;SDS011;23278;52.110;6.050;2022-10-18T08:01:05;7.15;;;4.43;;
37411;SDS011;23278;52.110;6.050;2022-10-18T08:03:34;9.95;;;4.78;;
37411;SDS011;23278;52.110;6.050;2022-10-18T08:06:01;10.05;;;5.57;;
37411;SDS011;23278;52.110;6.050;2022-10-18T08:08:28;9.93;;;4.97;;
37411;SDS011;23278;52.110;6.050;2022-10-18T08:10:55;11.75;;;5.45;;
37411;SDS011;23278;52.110;6.050;2022-10-18T08:13:30;9.68;;;4.80;;
37411;SDS011;23278;52.110;6.050;2022-10-18T08:16:03;6.32;;;3.60;;
37411;SDS011;23278;52.110;6.050;2022-10-18T08:18:40;10.13;;;4.40;;
37411;SDS011;23278;52.110;6.050;2022-10-18T08:21:06;7.90;;;3.97;;
37411;SDS011;23278;52.110;6.050;2022-10-18T08:23:34;7.53;;;3.08;;
37411;SDS011;23278;52.110;6.050;2022-10-18T08:26:01;6.82;;;2.80;;
37411;SDS011;23278;52.110;6.050;2022-10-18T08:28:31;6.47;;;2.70;;
37411;SDS011;23278;52.110;6.050;2022-10-18T08:31:00;7.47;;;2.38;;
37411;SDS011;23278;52.110;6.050;2022-10-18T08:33:27;7.30;;;2.28;;
37411;SDS011;23278;52.110;6.050;2022-10-18T08:35:57;4.88;;;1.85;;
37411;SDS011;23278;52.110;6.050;2022-10-18T08:38:24;3.15;;;1.85;;
37411;SDS011;23278;52.110;6.050;2022-10-18T08:40:53;5.20;;;1.42;;
37411;SDS011;23278;52.110;6.050;2022-10-18T08:43:27;4.90;;;1.48;;
37411;SDS011;23278;52.110;6.050;2022-10-18T08:46:03;6.38;;;1.70;;
37411;SDS011;23278;52.110;6.050;2022-10-18T08:48:33;8.55;;;1.38;;
37411;SDS011;23278;52.110;6.050;2022-10-18T08:51:03;9.48;;;1.42;;
37411;SDS011;23278;52.110;6.050;2022-10-18T08:56:34;3.47;;;0.90;;
37411;SDS011;23278;52.110;6.050;2022-10-18T08:59:02;6.47;;;1.65;;
37411;SDS011;23278;52.110;6.050;2022-10-18T09:09:27;5.95;;;0.95;;
37411;SDS011;23278;52.110;6.050;2022-10-18T09:18:08;2.80;;;0.98;;
37411;SDS011;23278;52.110;6.050;2022-10-18T09:23:31;5.43;;;1.05;;
37411;SDS011;23278;52.110;6.050;2022-10-18T09:26:20;3.55;;;0.80;;
37411;SDS011;23278;52.110;6.050;2022-10-18T09:28:58;5.15;;;0.80;;
37411;SDS011;23278;52.110;6.050;2022-10-18T09:36:49;2.63;;;1.33;;
37411;SDS011;23278;52.110;6.050;2022-10-18T09:39:20;3.92;;;0.65;;
37411;SDS011;23278;52.110;6.050;2022-10-18T09:41:55;5.25;;;0.82;;
37411;SDS011;23278;52.110;6.050;2022-10-18T09:44:29;3.83;;;0.77;;
37411;SDS011;23278;52.110;6.050;2022-10-18T09:47:02;3.25;;;0.70;;
37411;SDS011;23278;52.110;6.050;2022-10-18T09:49:39;1.95;;;0.60;;
37411;SDS011;23278;52.110;6.050;2022-10-18T09:52:12;2.60;;;0.70;;
37411;SDS011;23278;52.110;6.050;2022-10-18T09:54:43;2.78;;;0.75;;
37411;SDS011;23278;52.110;6.050;2022-10-18T09:57:25;3.03;;;0.50;;
37411;SDS011;23278;52.110;6.050;2022-10-18T09:59:57;6.28;;;1.30;;
37411;SDS011;23278;52.110;6.050;2022-10-18T10:02:25;4.47;;;0.80;;
37411;SDS011;23278;52.110;6.050;2022-10-18T10:04:51;3.13;;;0.70;;
37411;SDS011;23278;52.110;6.050;2022-10-18T10:07:25;2.88;;;0.90;;
37411;SDS011;23278;52.110;6.050;2022-10-18T10:09:57;4.22;;;0.90;;
37411;SDS011;23278;52.110;6.050;2022-10-18T10:17:55;2.58;;;0.77;;
37411;SDS011;23278;52.110;6.050;2022-10-18T10:20:41;3.35;;;0.60;;
37411;SDS011;23278;52.110;6.050;2022-10-18T10:23:18;5.20;;;1.08;;
37411;SDS011;23278;52.110;6.050;2022-10-18T10:25:48;3.88;;;1.10;;
37411;SDS011;23278;52.110;6.050;2022-10-18T10:28:21;2.70;;;0.70;;
37411;SDS011;23278;52.110;6.050;2022-10-18T10:30:50;3.92;;;0.70;;
37411;SDS011;23278;52.110;6.050;2022-10-18T10:33:29;3.25;;;0.77;;
37411;SDS011;23278;52.110;6.050;2022-10-18T10:36:01;2.33;;;0.52;;
37411;SDS011;23278;52.110;6.050;2022-10-18T10:38:29;5.45;;;1.30;;
37411;SDS011;23278;52.110;6.050;2022-10-18T10:40:55;1.77;;;0.77;;
37411;SDS011;23278;52.110;6.050;2022-10-18T10:43:29;3.42;;;0.77;;
37411;SDS011;23278;52.110;6.050;2022-10-18T10:46:16;3.28;;;1.10;;
37411;SDS011;23278;52.110;6.050;2022-10-18T10:48:53;4.57;;;1.67;;
37411;SDS011;23278;52.110;6.050;2022-10-18T10:54:16;3.20;;;0.85;;
37411;SDS011;23278;52.110;6.050;2022-10-18T10:59:23;2.08;;;0.90;;
37411;SDS011;23278;52.110;6.050;2022-10-18T11:04:42;2.60;;;0.63;;
37411;SDS011;23278;52.110;6.050;2022-10-18T11:07:22;4.05;;;0.77;;
37411;SDS011;23278;52.110;6.050;2022-10-18T11:12:37;1.83;;;0.60;;
37411;SDS011;23278;52.110;6.050;2022-10-18T11:15:17;5.95;;;1.05;;
37411;SDS011;23278;52.110;6.050;2022-10-18T11:18:03;3.83;;;0.98;;
37411;SDS011;23278;52.110;6.050;2022-10-18T11:21:07;1.88;;;0.50;;
37411;SDS011;23278;52.110;6.050;2022-10-18T11:23:38;2.90;;;1.00;;
37411;SDS011;23278;52.110;6.050;2022-10-18T11:28:48;4.70;;;0.95;;
37411;SDS011;23278;52.110;6.050;2022-10-18T11:42:12;4.68;;;0.77;;
37411;SDS011;23278;52.110;6.050;2022-10-18T11:50:36;2.63;;;0.60;;
37411;SDS011;23278;52.110;6.050;2022-10-18T12:01:19;5.15;;;0.73;;
37411;SDS011;23278;52.110;6.050;2022-10-18T12:06:39;3.30;;;0.85;;
37411;SDS011;23278;52.110;6.050;2022-10-18T12:09:11;3.45;;;0.70;;
37411;SDS011;23278;52.110;6.050;2022-10-18T12:11:49;4.35;;;0.75;;
37411;SDS011;23278;52.110;6.050;2022-10-18T12:14:24;2.38;;;0.75;;
37411;SDS011;23278;52.110;6.050;2022-10-18T12:16:54;4.30;;;0.60;;
37411;SDS011;23278;52.110;6.050;2022-10-18T12:19:25;2.13;;;0.70;;
37411;SDS011;23278;52.110;6.050;2022-10-18T12:22:27;2.00;;;0.60;;
37411;SDS011;23278;52.110;6.050;2022-10-18T12:24:48;3.13;;;0.70;;
37411;SDS011;23278;52.110;6.050;2022-10-18T12:27:14;2.85;;;0.70;;
37411;SDS011;23278;52.110;6.050;2022-10-18T12:29:55;3.17;;;1.20;;
37411;SDS011;23278;52.110;6.050;2022-10-18T12:32:31;2.78;;;0.85;;
37411;SDS011;23278;52.110;6.050;2022-10-18T12:35:19;2.92;;;1.02;;
37411;SDS011;23278;52.110;6.050;2022-10-18T12:40:41;1.83;;;0.60;;
37411;SDS011;23278;52.110;6.050;2022-10-18T12:43:25;2.30;;;0.60;;
37411;SDS011;23278;52.110;6.050;2022-10-18T12:45:59;1.60;;;0.50;;
37411;SDS011;23278;52.110;6.050;2022-10-18T12:48:45;2.17;;;0.52;;
37411;SDS011;23278;52.110;6.050;2022-10-18T12:51:23;2.55;;;0.63;;
37411;SDS011;23278;52.110;6.050;2022-10-18T13:07:10;2.33;;;0.55;;
37411;SDS011;23278;52.110;6.050;2022-10-18T13:12:57;3.92;;;0.70;;
37411;SDS011;23278;52.110;6.050;2022-10-18T13:15:46;2.03;;;0.50;;
37411;SDS011;23278;52.110;6.050;2022-10-18T13:18:21;4.57;;;0.70;;
37411;SDS011;23278;52.110;6.050;2022-10-18T13:29:46;2.72;;;0.60;;
37411;SDS011;23278;52.110;6.050;2022-10-18T13:32:27;1.38;;;0.40;;
37411;SDS011;23278;52.110;6.050;2022-10-18T13:34:59;3.72;;;0.70;;
37411;SDS011;23278;52.110;6.050;2022-10-18T13:37:25;1.38;;;0.40;;
37411;SDS011;23278;52.110;6.050;2022-10-18T13:42:48;1.88;;;0.40;;
37411;SDS011;23278;52.110;6.050;2022-10-18T13:45:41;1.23;;;0.40;;
37411;SDS011;23278;52.110;6.050;2022-10-18T13:50:54;1.25;;;0.38;;
37411;SDS011;23278;52.110;6.050;2022-10-18T13:53:39;0.60;;;0.30;;
37411;SDS011;23278;52.110;6.050;2022-10-18T13:56:35;1.40;;;0.30;;
37411;SDS011;23278;52.110;6.050;2022-10-18T14:07:33;0.73;;;0.30;;
37411;SDS011;23278;52.110;6.050;2022-10-18T14:10:00;2.25;;;0.40;;
37411;SDS011;23278;52.110;6.050;2022-10-18T14:12:29;0.80;;;0.30;;
37411;SDS011;23278;52.110;6.050;2022-10-18T14:17:43;1.48;;;0.38;;
37411;SDS011;23278;52.110;6.050;2022-10-18T14:25:18;2.67;;;0.55;;
37411;SDS011;23278;52.110;6.050;2022-10-18T14:30:35;1.50;;;0.50;;
37411;SDS011;23278;52.110;6.050;2022-10-18T14:33:02;1.33;;;0.40;;
37411;SDS011;23278;52.110;6.050;2022-10-18T14:35:29;1.02;;;0.40;;
37411;SDS011;23278;52.110;6.050;2022-10-18T14:37:57;2.58;;;0.50;;
37411;SDS011;23278;52.110;6.050;2022-10-18T14:40:27;4.00;;;0.50;;
37411;SDS011;23278;52.110;6.050;2022-10-18T14:43:04;2.03;;;0.40;;
37411;SDS011;23278;52.110;6.050;2022-10-18T14:45:36;2.92;;;0.52;;
37411;SDS011;23278;52.110;6.050;2022-10-18T14:48:21;3.13;;;0.50;;
37411;SDS011;23278;52.110;6.050;2022-10-18T14:50:49;1.60;;;0.40;;
37411;SDS011;23278;52.110;6.050;2022-10-18T14:53:25;1.83;;;0.43;;
37411;SDS011;23278;52.110;6.050;2022-10-18T14:56:00;1.45;;;0.40;;
37411;SDS011;23278;52.110;6.050;2022-10-18T14:58:31;2.72;;;0.50;;
37411;SDS011;23278;52.110;6.050;2022-10-18T15:01:00;1.63;;;0.47;;
37411;SDS011;23278;52.110;6.050;2022-10-18T15:03:26;1.15;;;0.40;;
37411;SDS011;23278;52.110;6.050;2022-10-18T15:05:57;3.45;;;0.50;;
37411;SDS011;23278;52.110;6.050;2022-10-18T15:08:33;6.15;;;0.70;;
37411;SDS011;23278;52.110;6.050;2022-10-18T15:11:06;3.45;;;0.60;;
37411;SDS011;23278;52.110;6.050;2022-10-18T15:13:36;2.95;;;0.68;;
37411;SDS011;23278;52.110;6.050;2022-10-18T15:16:17;4.47;;;0.80;;
37411;SDS011;23278;52.110;6.050;2022-10-18T15:18:57;3.10;;;0.50;;
37411;SDS011;23278;52.110;6.050;2022-10-18T15:21:31;2.95;;;0.70;;
37411;SDS011;23278;52.110;6.050;2022-10-18T15:26:45;2.50;;;0.60;;
37411;SDS011;23278;52.110;6.050;2022-10-18T15:29:19;1.80;;;0.45;;
37411;SDS011;23278;52.110;6.050;2022-10-18T15:31:52;3.25;;;0.52;;
37411;SDS011;23278;52.110;6.050;2022-10-18T15:34:25;4.28;;;0.93;;
37411;SDS011;23278;52.110;6.050;2022-10-18T15:36:55;2.53;;;0.55;;
37411;SDS011;23278;52.110;6.050;2022-10-18T15:39:26;1.00;;;0.50;;
37411;SDS011;23278;52.110;6.050;2022-10-18T15:41:59;2.88;;;0.50;;
37411;SDS011;23278;52.110;6.050;2022-10-18T15:44:31;1.80;;;0.50;;
37411;SDS011;23278;52.110;6.050;2022-10-18T15:49:50;2.28;;;0.52;;
37411;SDS011;23278;52.110;6.050;2022-10-18T15:52:29;3.10;;;0.60;;
37411;SDS011;23278;52.110;6.050;2022-10-18T15:55:49;3.88;;;1.27;;
37411;SDS011;23278;52.110;6.050;2022-10-18T15:58:11;2.22;;;0.63;;
37411;SDS011;23278;52.110;6.050;2022-10-18T16:00:37;3.80;;;0.93;;
37411;SDS011;23278;52.110;6.050;2022-10-18T16:03:03;3.75;;;1.63;;
37411;SDS011;23278;52.110;6.050;2022-10-18T16:05:32;3.50;;;0.73;;
37411;SDS011;23278;52.110;6.050;2022-10-18T16:07:59;2.00;;;0.50;;
37411;SDS011;23278;52.110;6.050;2022-10-18T16:10:40;1.98;;;0.52;;
37411;SDS011;23278;52.110;6.050;2022-10-18T16:13:08;1.42;;;0.50;;
37411;SDS011;23278;52.110;6.050;2022-10-18T16:15:34;1.55;;;0.55;;
37411;SDS011;23278;52.110;6.050;2022-10-18T16:18:00;2.00;;;0.70;;
37411;SDS011;23278;52.110;6.050;2022-10-18T16:20:27;2.90;;;1.20;;
37411;SDS011;23278;52.110;6.050;2022-10-18T16:22:53;1.77;;;0.50;;
37411;SDS011;23278;52.110;6.050;2022-10-18T16:25:19;0.93;;;0.30;;
37411;SDS011;23278;52.110;6.050;2022-10-18T16:27:45;0.90;;;0.52;;
37411;SDS011;23278;52.110;6.050;2022-10-18T16:30:12;4.32;;;1.10;;
37411;SDS011;23278;52.110;6.050;2022-10-18T16:32:44;3.55;;;1.48;;
37411;SDS011;23278;52.110;6.050;2022-10-18T16:35:14;4.70;;;1.98;;
37411;SDS011;23278;52.110;6.050;2022-10-18T16:37:40;3.78;;;1.30;;
37411;SDS011;23278;52.110;6.050;2022-10-18T16:40:24;4.93;;;1.52;;
37411;SDS011;23278;52.110;6.050;2022-10-18T16:42:51;3.60;;;1.27;;
37411;SDS011;23278;52.110;6.050;2022-10-18T16:45:17;3.35;;;0.95;;
37411;SDS011;23278;52.110;6.050;2022-10-18T16:47:43;6.57;;;1.13;;
37411;SDS011;23278;52.110;6.050;2022-10-18T16:50:12;1.65;;;0.60;;
37411;SDS011;23278;52.110;6.050;2022-10-18T16:52:41;1.58;;;0.60;;
37411;SDS011;23278;52.110;6.050;2022-10-18T16:55:07;4.22;;;0.90;;
37411;SDS011;23278;52.110;6.050;2022-10-18T16:57:49;3.63;;;0.95;;
37411;SDS011;23278;52.110;6.050;2022-10-18T17:00:18;2.92;;;0.63;;
37411;SDS011;23278;52.110;6.050;2022-10-18T17:02:48;3.28;;;0.75;;
37411;SDS011;23278;52.110;6.050;2022-10-18T17:05:18;1.60;;;0.60;;
37411;SDS011;23278;52.110;6.050;2022-10-18T17:07:45;1.85;;;0.57;;
37411;SDS011;23278;52.110;6.050;2022-10-18T17:10:13;1.98;;;0.50;;
37411;SDS011;23278;52.110;6.050;2022-10-18T17:12:41;2.33;;;0.50;;
37411;SDS011;23278;52.110;6.050;2022-10-18T17:15:07;1.10;;;0.50;;
37411;SDS011;23278;52.110;6.050;2022-10-18T17:17:33;1.98;;;0.57;;
37411;SDS011;23278;52.110;6.050;2022-10-18T17:20:00;2.22;;;0.70;;
37411;SDS011;23278;52.110;6.050;2022-10-18T17:22:27;2.65;;;1.15;;
37411;SDS011;23278;52.110;6.050;2022-10-18T17:24:53;3.15;;;1.13;;
37411;SDS011;23278;52.110;6.050;2022-10-18T17:27:18;2.00;;;0.95;;
37411;SDS011;23278;52.110;6.050;2022-10-18T17:29:44;3.53;;;1.00;;
37411;SDS011;23278;52.110;6.050;2022-10-18T17:32:10;3.50;;;0.85;;
37411;SDS011;23278;52.110;6.050;2022-10-18T17:34:36;2.58;;;1.00;;
37411;SDS011;23278;52.110;6.050;2022-10-18T17:37:03;1.50;;;0.73;;